Time;durP1;ratioP1;P1;durP2;ratioP2;P2;SDS_P1;SDS_P2;PMS_P1;PMS_P2;Temp;Humidity;BMP_temperature;BMP_pressure;BME280_temperature;BME280_humidity;BME280_pressure;Samples;Min_cycle;Max_cycle;Signal;HPM_P1;HPM_P2
2022/09/28 00:01:02;;;;;;;4.28;1.95;;;;;;;;;;4965934;28;20105;-61
2022/09/28 00:03:30;;;;;;;3.28;1.90;;;;;;;;;;4971372;28;20150;-64
2022/09/28 00:06:02;;;;;;;12.55;1.90;;;;;;;;;;4965400;28;20047;-61
2022/09/28 00:08:29;;;;;;;3.63;1.80;;;;;;;;;;4970986;28;20047;-61
2022/09/28 00:10:55;;;;;;;9.07;3.35;;;;;;;;;;4964037;28;20067;-60
2022/09/28 00:13:23;;;;;;;14.27;3.22;;;;;;;;;;4970721;28;20109;-64
2022/09/28 00:15:58;;;;;;;3.63;1.60;;;;;;;;;;4965819;28;20086;-57
2022/09/28 00:18:25;;;;;;;22.13;3.33;;;;;;;;;;4951479;28;20065;-62
2022/09/28 00:21:01;;;;;;;4.22;2.13;;;;;;;;;;4951331;29;20059;-60
2022/09/28 00:23:29;;;;;;;3.45;1.67;;;;;;;;;;4969331;28;20061;-62
2022/09/28 00:25:56;;;;;;;5.70;1.97;;;;;;;;;;4970377;28;20059;-58
2022/09/28 00:28:22;;;;;;;4.38;1.80;;;;;;;;;;4964338;28;20055;-59
2022/09/28 00:30:54;;;;;;;4.18;1.77;;;;;;;;;;4970614;28;20050;-60
2022/09/28 00:33:21;;;;;;;6.78;2.00;;;;;;;;;;4964533;28;20099;-63
2022/09/28 00:35:54;;;;;;;3.65;1.80;;;;;;;;;;4970171;28;20070;-59
2022/09/28 00:38:20;;;;;;;4.57;1.90;;;;;;;;;;4964903;28;20054;-60
2022/09/28 00:40:48;;;;;;;4.38;1.73;;;;;;;;;;4969254;28;20050;-61
2022/09/28 00:43:19;;;;;;;4.05;1.85;;;;;;;;;;4963726;28;20055;-59
2022/09/28 00:45:48;;;;;;;3.90;1.92;;;;;;;;;;4970420;28;20062;-65
2022/09/28 00:48:14;;;;;;;3.20;1.70;;;;;;;;;;4964225;28;20058;-57
2022/09/28 00:50:41;;;;;;;3.45;1.67;;;;;;;;;;4955400;28;20047;-62
2022/09/28 00:53:10;;;;;;;3.97;1.80;;;;;;;;;;4954141;28;20105;-62
2022/09/28 00:55:38;;;;;;;17.48;3.13;;;;;;;;;;4969734;28;20062;-60
2022/09/28 00:58:07;;;;;;;7.20;2.20;;;;;;;;;;4964830;28;20096;-63
2022/09/28 01:00:34;;;;;;;5.03;2.00;;;;;;;;;;4969643;28;20062;-59
2022/09/28 01:03:00;;;;;;;3.30;1.65;;;;;;;;;;4964348;28;20062;-58
2022/09/28 01:05:27;;;;;;;5.20;1.90;;;;;;;;;;4970004;28;20058;-61
2022/09/28 01:07:54;;;;;;;4.57;2.22;;;;;;;;;;4965457;28;20114;-59
2022/09/28 01:10:22;;;;;;;4.05;2.00;;;;;;;;;;4950925;29;20143;-62
2022/09/28 01:12:49;;;;;;;3.97;1.63;;;;;;;;;;4950791;29;20070;-59
2022/09/28 01:15:20;;;;;;;4.18;1.80;;;;;;;;;;4962803;28;20153;-62
2022/09/28 01:18:00;;;;;;;3.58;1.80;;;;;;;;;;4969861;28;20128;-59
2022/09/28 01:20:31;;;;;;;3.92;1.70;;;;;;;;;;4977821;28;20054;-62
2022/09/28 01:23:30;;;;;;;4.85;1.90;;;;;;;;;;4970122;28;20050;-59
2022/09/28 01:25:56;;;;;;;;;;;;;;;;;;4895372;29;20152;-62
2022/09/28 01:28:26;;;;;;;3.67;1.58;;;;;;;;;;4952466;28;19934;-63
2022/09/28 01:30:57;;;;;;;3.22;1.85;;;;;;;;;;4975864;28;20055;-58
2022/09/28 01:33:25;;;;;;;5.22;1.80;;;;;;;;;;4966199;28;20113;-59
2022/09/28 01:35:52;;;;;;;3.45;1.67;;;;;;;;;;4960572;28;20054;-57
2022/09/28 01:38:21;;;;;;;4.50;1.77;;;;;;;;;;4969398;28;20058;-63
2022/09/28 01:40:48;;;;;;;4.63;1.60;;;;;;;;;;4963785;28;20055;-59
2022/09/28 01:43:17;;;;;;;4.65;2.00;;;;;;;;;;4969278;28;20055;-60
2022/09/28 01:45:49;;;;;;;4.28;1.85;;;;;;;;;;4963583;28;20051;-55
2022/09/28 01:48:19;;;;;;;3.97;1.67;;;;;;;;;;4969828;28;20063;-61
2022/09/28 01:50:47;;;;;;;4.15;1.90;;;;;;;;;;4963697;28;20069;-59
2022/09/28 01:53:16;;;;;;;7.18;1.63;;;;;;;;;;4969736;28;20097;-61
2022/09/28 01:55:44;;;;;;;3.90;1.92;;;;;;;;;;4963316;28;20050;-59
2022/09/28 01:58:12;;;;;;;5.38;2.08;;;;;;;;;;4968897;28;20058;-56
2022/09/28 02:00:40;;;;;;;3.30;1.50;;;;;;;;;;4963292;28;20089;-62
2022/09/28 02:03:07;;;;;;;;;;;;;;;;;;4969467;28;20055;-59
2022/09/28 02:05:39;;;;;;;3.22;1.33;;;;;;;;;;4962823;28;20022;-61
2022/09/28 02:08:08;;;;;;;3.78;1.73;;;;;;;;;;4968794;28;20063;-59
2022/09/28 02:10:38;;;;;;;2.67;1.50;;;;;;;;;;4963266;28;20047;-62
2022/09/28 02:13:08;;;;;;;4.40;1.98;;;;;;;;;;4968606;28;20082;-60
2022/09/28 02:15:36;;;;;;;3.03;1.50;;;;;;;;;;4963036;28;20065;-63
2022/09/28 02:18:03;;;;;;;5.70;2.55;;;;;;;;;;4968245;28;20054;-65
2022/09/28 02:20:31;;;;;;;5.55;2.15;;;;;;;;;;4968586;28;20051;-57
2022/09/28 02:23:01;;;;;;;2.70;1.57;;;;;;;;;;4962476;28;20086;-63
2022/09/28 02:25:30;;;;;;;6.18;2.30;;;;;;;;;;4968415;28;20058;-64
2022/09/28 02:27:59;;;;;;;3.85;1.52;;;;;;;;;;4962421;28;20058;-57
2022/09/28 02:30:26;;;;;;;3.50;1.83;;;;;;;;;;4968634;28;20059;-65
2022/09/28 02:32:55;;;;;;;4.50;1.92;;;;;;;;;;4960716;28;20059;-64
2022/09/28 02:35:22;;;;;;;4.82;2.20;;;;;;;;;;4968148;28;20055;-55
2022/09/28 02:37:49;;;;;;;3.83;1.92;;;;;;;;;;4962275;28;20054;-59
2022/09/28 02:40:18;;;;;;;4.60;2.00;;;;;;;;;;4967959;28;20055;-56
2022/09/28 02:42:53;;;;;;;4.82;2.00;;;;;;;;;;4962730;28;20069;-64
2022/09/28 02:45:26;;;;;;;4.93;2.00;;;;;;;;;;4967639;28;20135;-61
2022/09/28 02:48:10;;;;;;;4.43;1.83;;;;;;;;;;4961633;28;20059;-60
2022/09/28 02:50:42;;;;;;;4.30;1.65;;;;;;;;;;4968119;28;20080;-61
2022/09/28 02:53:23;;;;;;;2.75;1.70;;;;;;;;;;4958053;28;20051;-62
2022/09/28 02:55:58;;;;;;;4.18;2.08;;;;;;;;;;4948322;29;20051;-63
2022/09/28 02:58:31;;;;;;;5.00;2.55;;;;;;;;;;4953725;28;20074;-62
2022/09/28 03:01:05;;;;;;;3.92;1.98;;;;;;;;;;4967787;28;20054;-60
2022/09/28 03:03:36;;;;;;;3.83;1.58;;;;;;;;;;4962175;28;20054;-62
2022/09/28 03:06:04;;;;;;;4.53;2.00;;;;;;;;;;4967668;28;20051;-62
2022/09/28 03:08:33;;;;;;;2.92;1.60;;;;;;;;;;4961621;28;20053;-58
2022/09/28 03:11:04;;;;;;;6.78;2.55;;;;;;;;;;4968916;28;20042;-64
2022/09/28 03:13:33;;;;;;;5.07;2.15;;;;;;;;;;4962508;28;20051;-64
2022/09/28 03:16:07;;;;;;;4.00;1.80;;;;;;;;;;4969272;28;20086;-58
2022/09/28 03:18:34;;;;;;;5.10;1.85;;;;;;;;;;4961973;28;20054;-65
2022/09/28 03:21:01;;;;;;;4.78;2.08;;;;;;;;;;4967927;28;20050;-61
2022/09/28 03:23:28;;;;;;;4.10;1.65;;;;;;;;;;4961410;28;20051;-60
2022/09/28 03:25:55;;;;;;;4.60;1.90;;;;;;;;;;4967358;28;20051;-59
2022/09/28 03:28:24;;;;;;;5.25;1.75;;;;;;;;;;4961870;28;20055;-58
2022/09/28 03:30:51;;;;;;;2.85;1.60;;;;;;;;;;4948590;29;20138;-59
2022/09/28 03:33:19;;;;;;;5.10;1.60;;;;;;;;;;4946430;28;20081;-61
2022/09/28 03:35:46;;;;;;;33.15;2.30;;;;;;;;;;4960506;28;20051;-64
2022/09/28 03:38:13;;;;;;;7.03;1.83;;;;;;;;;;4967371;28;20055;-61
2022/09/28 03:40:39;;;;;;;26.70;2.35;;;;;;;;;;4961446;28;20109;-63
2022/09/28 03:43:06;;;;;;;5.88;1.88;;;;;;;;;;4967776;28;20051;-62
2022/09/28 03:45:34;;;;;;;3.35;1.65;;;;;;;;;;4961176;28;20047;-65
2022/09/28 03:48:00;;;;;;;23.13;1.67;;;;;;;;;;4967639;28;20102;-62
2022/09/28 03:50:27;;;;;;;26.30;1.73;;;;;;;;;;4961296;28;20051;-57
2022/09/28 03:52:53;;;;;;;4.32;1.48;;;;;;;;;;4967421;28;20066;-61
2022/09/28 03:55:20;;;;;;;3.38;1.60;;;;;;;;;;4961159;28;20050;-59
2022/09/28 03:57:52;;;;;;;2.63;1.40;;;;;;;;;;4967723;28;20069;-61
2022/09/28 04:00:19;;;;;;;1.92;1.13;;;;;;;;;;4961631;28;20058;-62
2022/09/28 04:02:48;;;;;;;2.85;1.60;;;;;;;;;;4967765;28;20129;-65
2022/09/28 04:05:14;;;;;;;4.00;1.33;;;;;;;;;;4961536;28;20059;-62
2022/09/28 04:07:41;;;;;;;2.25;1.17;;;;;;;;;;4967508;28;20055;-64
2022/09/28 04:10:08;;;;;;;3.13;1.55;;;;;;;;;;4960867;28;20055;-59
2022/09/28 04:12:36;;;;;;;2.72;1.27;;;;;;;;;;4969707;28;20055;-63
2022/09/28 04:15:03;;;;;;;2.58;1.38;;;;;;;;;;4968852;28;20083;-61
2022/09/28 04:17:30;;;;;;;2.50;1.48;;;;;;;;;;4961271;28;20050;-61
2022/09/28 04:19:58;;;;;;;4.17;1.50;;;;;;;;;;4967571;28;20055;-59
2022/09/28 04:22:25;;;;;;;2.37;1.30;;;;;;;;;;4961255;28;20105;-63
2022/09/28 04:24:52;;;;;;;4.63;1.40;;;;;;;;;;4967035;28;20310;-59
2022/09/28 04:30:03;;;;;;;2.60;1.30;;;;;;;;;;4968111;28;20051;-58
2022/09/28 04:32:32;;;;;;;3.58;1.40;;;;;;;;;;4961007;28;20043;-66
2022/09/28 04:35:01;;;;;;;3.40;1.33;;;;;;;;;;4968088;28;20129;-64
2022/09/28 04:37:30;;;;;;;;;;;;;;;;;;4964168;28;20050;-61
2022/09/28 04:39:56;;;;;;;2.50;1.15;;;;;;;;;;4970963;28;19949;-63
2022/09/28 04:42:23;;;;;;;2.63;1.25;;;;;;;;;;4964198;28;20113;-67
2022/09/28 04:44:49;;;;;;;2.08;1.15;;;;;;;;;;4970859;28;20055;-63
2022/09/28 04:47:16;;;;;;;2.67;1.35;;;;;;;;;;4964223;28;20061;-59
2022/09/28 04:49:42;;;;;;;2.53;1.10;;;;;;;;;;4970088;28;20054;-67
2022/09/28 04:52:10;;;;;;;2.80;1.30;;;;;;;;;;4964439;28;20074;-63
2022/09/28 04:54:37;;;;;;;1.42;1.10;;;;;;;;;;4969859;28;20133;-61
2022/09/28 04:57:04;;;;;;;3.67;1.40;;;;;;;;;;4963987;28;20090;-59
2022/09/28 04:59:31;;;;;;;2.03;1.23;;;;;;;;;;4970026;28;20054;-58
2022/09/28 05:01:58;;;;;;;2.72;1.20;;;;;;;;;;4965579;28;20055;-56
2022/09/28 05:04:24;;;;;;;2.88;1.27;;;;;;;;;;4968831;28;20051;-60
2022/09/28 05:06:51;;;;;;;3.40;1.50;;;;;;;;;;4961568;28;20051;-63
2022/09/28 05:09:19;;;;;;;2.42;1.30;;;;;;;;;;4967925;28;20062;-57
2022/09/28 05:11:45;;;;;;;2.45;1.45;;;;;;;;;;4957205;28;20077;-63
2022/09/28 05:14:12;;;;;;;3.13;1.48;;;;;;;;;;4972337;28;20059;-60
2022/09/28 05:16:39;;;;;;;2.10;1.10;;;;;;;;;;4974160;28;20054;-57
2022/09/28 05:19:06;;;;;;;2.60;1.38;;;;;;;;;;4954637;28;20114;-57
2022/09/28 05:21:32;;;;;;;2.83;1.42;;;;;;;;;;4956849;28;20053;-58
2022/09/28 05:23:59;;;;;;;3.13;1.35;;;;;;;;;;4955098;28;20051;-59
2022/09/28 05:26:30;;;;;;;4.75;1.80;;;;;;;;;;4957631;28;20054;-55
2022/09/28 05:28:56;;;;;;;3.17;1.48;;;;;;;;;;4967158;28;20111;-58
2022/09/28 05:31:23;;;;;;;2.45;1.20;;;;;;;;;;4977150;28;20055;-60
2022/09/28 05:33:49;;;;;;;2.53;1.33;;;;;;;;;;4950233;28;20054;-60
2022/09/28 05:36:16;;;;;;;2.78;1.27;;;;;;;;;;4956067;28;20105;-58
2022/09/28 05:38:42;;;;;;;2.78;1.40;;;;;;;;;;4976136;28;20054;-61
2022/09/28 05:41:09;;;;;;;6.47;1.90;;;;;;;;;;4969830;28;20051;-60
2022/09/28 05:43:37;;;;;;;3.33;1.65;;;;;;;;;;4964901;28;20182;-57
2022/09/28 05:46:05;;;;;;;2.67;1.48;;;;;;;;;;4968950;28;20046;-55
2022/09/28 05:48:31;;;;;;;3.47;1.52;;;;;;;;;;4968883;28;20058;-56
2022/09/28 05:50:58;;;;;;;5.47;1.50;;;;;;;;;;4962566;28;20070;-57
2022/09/28 05:53:25;;;;;;;3.65;1.52;;;;;;;;;;4969056;28;20046;-57
2022/09/28 05:55:51;;;;;;;3.05;1.50;;;;;;;;;;4965726;28;20054;-60
2022/09/28 05:58:18;;;;;;;4.47;1.63;;;;;;;;;;4970334;28;20050;-63
2022/09/28 06:00:46;;;;;;;3.03;1.58;;;;;;;;;;4965471;28;20056;-62
2022/09/28 06:03:14;;;;;;;2.58;1.48;;;;;;;;;;4971897;28;20126;-61
2022/09/28 06:05:40;;;;;;;3.65;1.63;;;;;;;;;;4981261;28;20132;-61
2022/09/28 06:08:09;;;;;;;3.08;1.38;;;;;;;;;;4972375;28;20046;-62
2022/09/28 06:10:35;;;;;;;3.97;1.40;;;;;;;;;;4966573;28;20117;-64
2022/09/28 06:13:02;;;;;;;3.67;1.48;;;;;;;;;;4971942;28;20061;-57
2022/09/28 06:15:29;;;;;;;2.92;1.50;;;;;;;;;;4966261;28;20061;-54
2022/09/28 06:17:58;;;;;;;4.22;1.20;;;;;;;;;;4972238;28;20130;-58
2022/09/28 06:20:24;;;;;;;;;;;;;;;;;;4966337;28;20057;-60
2022/09/28 06:22:51;;;;;;;3.17;1.33;;;;;;;;;;4971863;28;19933;-59
2022/09/28 06:25:18;;;;;;;4.32;1.48;;;;;;;;;;4965093;28;20145;-60
2022/09/28 06:27:53;;;;;;;5.72;1.55;;;;;;;;;;4971889;28;20078;-59
2022/09/28 06:30:19;;;;;;;3.05;1.52;;;;;;;;;;4971752;28;20101;-57
2022/09/28 06:32:48;;;;;;;3.50;1.60;;;;;;;;;;4968442;28;20058;-62
2022/09/28 06:35:16;;;;;;;4.18;1.70;;;;;;;;;;4972505;28;20149;-59
2022/09/28 06:37:44;;;;;;;3.90;1.73;;;;;;;;;;4965339;28;20054;-59
2022/09/28 06:40:11;;;;;;;2.35;1.27;;;;;;;;;;4971252;28;20068;-57
2022/09/28 06:42:38;;;;;;;3.88;1.60;;;;;;;;;;4965250;28;20054;-59
2022/09/28 06:45:04;;;;;;;2.83;1.60;;;;;;;;;;4970719;28;20053;-56
2022/09/28 06:47:32;;;;;;;2.72;1.40;;;;;;;;;;4964692;28;20054;-58
2022/09/28 06:49:59;;;;;;;3.10;1.38;;;;;;;;;;4971491;28;20054;-55
2022/09/28 06:52:27;;;;;;;3.55;1.70;;;;;;;;;;4962757;28;20073;-62
2022/09/28 06:54:54;;;;;;;3.38;1.67;;;;;;;;;;4986947;28;20088;-59
2022/09/28 06:57:21;;;;;;;3.07;1.30;;;;;;;;;;4965124;28;20058;-61
2022/09/28 06:59:48;;;;;;;4.18;1.60;;;;;;;;;;4970236;28;20050;-57
2022/09/28 07:02:15;;;;;;;3.22;1.30;;;;;;;;;;4965502;28;20101;-62
2022/09/28 07:04:41;;;;;;;1.98;1.30;;;;;;;;;;4971074;28;20050;-52
2022/09/28 07:07:08;;;;;;;3.17;1.23;;;;;;;;;;4965224;28;20054;-60
2022/09/28 07:09:36;;;;;;;2.90;1.50;;;;;;;;;;4971058;28;20067;-62
2022/09/28 07:12:04;;;;;;;4.00;1.45;;;;;;;;;;4965440;28;20065;-58
2022/09/28 07:14:30;;;;;;;4.03;1.25;;;;;;;;;;4951366;28;20053;-60
2022/09/28 07:16:57;;;;;;;3.30;1.30;;;;;;;;;;4951613;28;20059;-59
2022/09/28 07:19:23;;;;;;;2.58;1.10;;;;;;;;;;4959858;28;20058;-62
2022/09/28 07:21:51;;;;;;;2.85;1.25;;;;;;;;;;4951291;28;20058;-62
2022/09/28 07:24:18;;;;;;;2.58;1.30;;;;;;;;;;4960837;28;20073;-58
2022/09/28 07:26:46;;;;;;;3.00;1.48;;;;;;;;;;4970615;28;20046;-61
2022/09/28 07:29:13;;;;;;;3.60;1.70;;;;;;;;;;4964627;28;20073;-60
2022/09/28 07:31:41;;;;;;;4.35;1.30;;;;;;;;;;4970215;28;20060;-57
2022/09/28 07:34:08;;;;;;;6.45;1.60;;;;;;;;;;4964774;28;20188;-59
2022/09/28 07:36:35;;;;;;;3.95;1.13;;;;;;;;;;4969769;28;20109;-63
2022/09/28 07:39:01;;;;;;;5.35;1.08;;;;;;;;;;4963038;28;20054;-58
2022/09/28 07:41:31;;;;;;;2.58;1.13;;;;;;;;;;4969697;28;20054;-56
2022/09/28 07:44:04;;;;;;;0.82;0.70;;;;;;;;;;4964426;28;20047;-58
2022/09/28 07:46:31;;;;;;;5.85;1.20;;;;;;;;;;4969613;28;20096;-60
2022/09/28 07:48:58;;;;;;;1.50;0.90;;;;;;;;;;4963885;28;20054;-61
2022/09/28 07:51:24;;;;;;;4.10;0.90;;;;;;;;;;4970050;28;20061;-58
2022/09/28 07:53:53;;;;;;;1.52;0.88;;;;;;;;;;4964966;28;20065;-62
2022/09/28 07:56:19;;;;;;;3.67;1.25;;;;;;;;;;4969996;28;20054;-59
2022/09/28 07:58:47;;;;;;;1.98;0.90;;;;;;;;;;4970002;28;20050;-59
2022/09/28 08:01:15;;;;;;;4.97;0.98;;;;;;;;;;4967790;28;20054;-56
2022/09/28 08:03:44;;;;;;;2.28;0.93;;;;;;;;;;4970624;28;20141;-58
2022/09/28 08:06:11;;;;;;;;;;;;;;;;;;4964431;28;20161;-56
2022/09/28 08:08:40;;;;;;;2.45;0.90;;;;;;;;;;4970409;28;19925;-62
2022/09/28 08:11:09;;;;;;;2.13;0.90;;;;;;;;;;4966756;28;20062;-61
2022/09/28 08:13:36;;;;;;;3.60;0.95;;;;;;;;;;4974011;28;20076;-57
2022/09/28 08:16:04;;;;;;;2.58;0.95;;;;;;;;;;4968083;28;20060;-60
2022/09/28 08:18:31;;;;;;;3.47;1.10;;;;;;;;;;4972397;28;20081;-58
2022/09/28 08:23:42;;;;;;;4.72;0.95;;;;;;;;;;4973835;28;20308;-54
2022/09/28 08:26:08;;;;;;;1.70;0.88;;;;;;;;;;4967832;28;20065;-59
2022/09/28 08:28:35;;;;;;;2.65;0.90;;;;;;;;;;4973704;28;20089;-62
2022/09/28 08:31:02;;;;;;;3.40;0.93;;;;;;;;;;4967236;28;20058;-56
2022/09/28 08:33:29;;;;;;;3.17;0.80;;;;;;;;;;4974048;28;20065;-53
2022/09/28 08:35:57;;;;;;;2.92;1.10;;;;;;;;;;4968246;28;20051;-58
2022/09/28 08:38:24;;;;;;;5.70;1.08;;;;;;;;;;4973944;28;20054;-52
2022/09/28 08:40:59;;;;;;;2.53;0.90;;;;;;;;;;4967467;28;20058;-62
2022/09/28 08:43:39;;;;;;;4.03;1.05;;;;;;;;;;4974464;28;20061;-52
2022/09/28 08:46:06;;;;;;;1.90;0.95;;;;;;;;;;4968707;28;20042;-56
2022/09/28 08:48:44;;;;;;;1.42;0.80;;;;;;;;;;4973258;28;20046;-53
2022/09/28 08:51:15;;;;;;;0.80;0.70;;;;;;;;;;4967387;28;20058;-57
2022/09/28 08:53:44;;;;;;;1.90;0.80;;;;;;;;;;4973141;28;20158;-56
2022/09/28 08:56:13;;;;;;;2.33;0.75;;;;;;;;;;4963073;28;20109;-58
2022/09/28 08:58:42;;;;;;;1.05;0.75;;;;;;;;;;4969540;28;20053;-57
2022/09/28 09:01:08;;;;;;;;;;;;;;;;;;4970327;28;20054;-60
2022/09/28 09:03:38;;;;;;;2.58;0.88;;;;;;;;;;4964071;28;19926;-61
2022/09/28 09:06:07;;;;;;;1.30;0.82;;;;;;;;;;4969577;28;20105;-60
2022/09/28 09:08:40;;;;;;;1.40;0.60;;;;;;;;;;4964243;28;20055;-61
2022/09/28 09:11:11;;;;;;;1.58;0.60;;;;;;;;;;4968094;28;20058;-60
2022/09/28 09:14:01;;;;;;;3.20;0.70;;;;;;;;;;4963773;28;20062;-61
2022/09/28 09:16:32;;;;;;;1.85;0.63;;;;;;;;;;4969999;28;20058;-57
2022/09/28 09:19:02;;;;;;;1.15;0.73;;;;;;;;;;4961731;28;20051;-62
2022/09/28 09:21:38;;;;;;;1.98;0.80;;;;;;;;;;4969713;28;20061;-57
2022/09/28 09:24:13;;;;;;;1.30;0.50;;;;;;;;;;4963514;28;20066;-59
2022/09/28 09:26:40;;;;;;;2.15;0.70;;;;;;;;;;4969635;28;20085;-64
2022/09/28 09:29:16;;;;;;;1.10;0.50;;;;;;;;;;4964077;28;20142;-60
2022/09/28 09:31:53;;;;;;;0.40;0.40;;;;;;;;;;4970203;28;20050;-52
2022/09/28 09:34:34;;;;;;;4.75;0.50;;;;;;;;;;4963635;28;20051;-60
2022/09/28 09:37:17;;;;;;;1.73;0.60;;;;;;;;;;4969074;28;20061;-60
2022/09/28 09:39:54;;;;;;;1.65;0.60;;;;;;;;;;4962725;28;20077;-60
2022/09/28 09:42:27;;;;;;;5.28;0.50;;;;;;;;;;4969336;28;20061;-59
2022/09/28 09:45:14;;;;;;;1.88;0.50;;;;;;;;;;4961261;28;20146;-60
2022/09/28 09:47:44;;;;;;;1.05;0.20;;;;;;;;;;4961647;28;20050;-61
2022/09/28 09:50:13;;;;;;;3.47;0.43;;;;;;;;;;4963021;28;20061;-58
2022/09/28 09:52:45;;;;;;;1.58;0.70;;;;;;;;;;4968911;28;20046;-60
2022/09/28 09:55:18;;;;;;;3.03;0.68;;;;;;;;;;4971675;28;20050;-50
2022/09/28 09:57:50;;;;;;;1.25;0.35;;;;;;;;;;4972342;28;20038;-60
2022/09/28 10:00:17;;;;;;;0.38;0.38;;;;;;;;;;4966220;28;20086;-60
2022/09/28 10:02:45;;;;;;;1.60;0.50;;;;;;;;;;4972977;28;20085;-56
2022/09/28 10:05:17;;;;;;;2.08;0.50;;;;;;;;;;4964910;28;20066;-66
2022/09/28 10:07:46;;;;;;;1.15;0.45;;;;;;;;;;4971914;28;20089;-60
2022/09/28 10:10:13;;;;;;;;;;;;;;;;;;4966194;28;20062;-64
2022/09/28 10:12:41;;;;;;;0.63;0.28;;;;;;;;;;4972240;28;19937;-57
2022/09/28 10:15:08;;;;;;;1.25;0.57;;;;;;;;;;4971366;28;20068;-55
2022/09/28 10:17:36;;;;;;;0.70;0.55;;;;;;;;;;4965985;28;20056;-58
2022/09/28 10:20:03;;;;;;;0.55;0.40;;;;;;;;;;4946767;28;20142;-62
2022/09/28 10:22:31;;;;;;;0.50;0.40;;;;;;;;;;4952728;28;20146;-62
2022/09/28 10:24:59;;;;;;;3.30;0.40;;;;;;;;;;4946258;28;20048;-58
2022/09/28 10:27:27;;;;;;;1.80;0.40;;;;;;;;;;4952485;28;20058;-60
2022/09/28 10:29:57;;;;;;;0.35;0.35;;;;;;;;;;4947413;28;20054;-57
2022/09/28 10:32:25;;;;;;;0.88;0.60;;;;;;;;;;4951673;28;20055;-59
2022/09/28 10:34:53;;;;;;;2.30;0.80;;;;;;;;;;4950407;28;20097;-58
2022/09/28 10:37:20;;;;;;;;;;;;;;;;;;4959546;28;20076;-55
2022/09/28 10:39:49;;;;;;;1.23;0.50;;;;;;;;;;4972170;28;19960;-60
2022/09/28 10:42:18;;;;;;;1.45;0.45;;;;;;;;;;4965189;28;20054;-62
2022/09/28 10:44:50;;;;;;;0.30;0.30;;;;;;;;;;4970412;28;20054;-61
2022/09/28 10:47:19;;;;;;;2.65;0.30;;;;;;;;;;4962314;28;20054;-58
2022/09/28 10:49:47;;;;;;;1.73;0.25;;;;;;;;;;4971414;28;20050;-60
2022/09/28 10:52:34;;;;;;;0.57;0.32;;;;;;;;;;4977348;28;20116;-60
2022/09/28 10:55:01;;;;;;;3.42;0.52;;;;;;;;;;4959583;28;20062;-53
2022/09/28 10:57:29;;;;;;;0.70;0.30;;;;;;;;;;4959399;28;20042;-54
2022/09/28 10:59:55;;;;;;;0.40;0.30;;;;;;;;;;4967545;28;20043;-56
2022/09/28 11:02:25;;;;;;;1.20;0.40;;;;;;;;;;4950181;28;20082;-55
2022/09/28 11:04:53;;;;;;;0.30;0.30;;;;;;;;;;4949216;29;20055;-57
2022/09/28 11:07:23;;;;;;;0.25;0.25;;;;;;;;;;4944611;28;20059;-51
2022/09/28 11:09:50;;;;;;;2.38;0.30;;;;;;;;;;4949829;28;20058;-55
2022/09/28 11:12:19;;;;;;;0.28;0.28;;;;;;;;;;4950260;28;20165;-64
2022/09/28 11:14:51;;;;;;;1.35;0.35;;;;;;;;;;4967744;28;20050;-62
2022/09/28 11:17:24;;;;;;;0.40;0.20;;;;;;;;;;4955307;28;20075;-62
2022/09/28 11:19:55;;;;;;;0.57;0.20;;;;;;;;;;4946602;28;20063;-59
2022/09/28 11:22:22;;;;;;;0.98;0.40;;;;;;;;;;4946522;28;20121;-61
2022/09/28 11:24:49;;;;;;;0.73;0.40;;;;;;;;;;4967387;28;20049;-53
2022/09/28 11:27:23;;;;;;;0.57;0.40;;;;;;;;;;4960803;28;20051;-64
2022/09/28 11:29:55;;;;;;;1.90;0.93;;;;;;;;;;4967108;28;20118;-60
2022/09/28 11:32:23;;;;;;;0.20;0.20;;;;;;;;;;4961093;28;20081;-60
2022/09/28 11:34:51;;;;;;;1.50;0.40;;;;;;;;;;4966921;28;20054;-61
2022/09/28 11:37:32;;;;;;;0.95;0.28;;;;;;;;;;4963925;28;20086;-55
2022/09/28 11:40:05;;;;;;;0.43;0.30;;;;;;;;;;4947708;29;20180;-60
2022/09/28 11:42:38;;;;;;;2.25;0.70;;;;;;;;;;4945065;28;20082;-60
2022/09/28 11:45:12;;;;;;;0.30;0.30;;;;;;;;;;4947061;29;20062;-63
2022/09/28 11:47:47;;;;;;;0.60;0.30;;;;;;;;;;4948144;29;20062;-59
2022/09/28 11:50:20;;;;;;;0.40;0.30;;;;;;;;;;4948060;29;20062;-58
2022/09/28 11:53:01;;;;;;;0.63;0.22;;;;;;;;;;4947523;29;20082;-63
2022/09/28 11:55:32;;;;;;;1.13;0.30;;;;;;;;;;4947026;28;20059;-54
2022/09/28 11:58:03;;;;;;;1.27;0.60;;;;;;;;;;4947742;29;20055;-66
2022/09/28 12:00:31;;;;;;;0.30;0.30;;;;;;;;;;4962119;28;20073;-58
2022/09/28 12:03:01;;;;;;;0.50;0.20;;;;;;;;;;4966950;28;20055;-60
2022/09/28 12:05:28;;;;;;;1.58;0.30;;;;;;;;;;4942569;28;20164;-60
2022/09/28 12:07:56;;;;;;;0.38;0.35;;;;;;;;;;4946737;29;20066;-52
2022/09/28 12:10:31;;;;;;;12.65;0.63;;;;;;;;;;4942483;28;20101;-56
2022/09/28 12:13:00;;;;;;;5.47;0.30;;;;;;;;;;4962894;28;20054;-58
2022/09/28 12:15:29;;;;;;;9.05;0.40;;;;;;;;;;4955092;28;20101;-65
2022/09/28 12:17:57;;;;;;;122.18;3.78;;;;;;;;;;4967313;28;20121;-56
2022/09/28 12:20:26;;;;;;;4.28;0.30;;;;;;;;;;4965216;28;20047;-60
2022/09/28 12:23:01;;;;;;;70.10;1.95;;;;;;;;;;4947485;28;20203;-60
2022/09/28 12:25:39;;;;;;;48.22;1.55;;;;;;;;;;4952610;28;20055;-60
2022/09/28 12:28:08;;;;;;;3.97;0.82;;;;;;;;;;4967121;28;20050;-53
2022/09/28 12:30:39;;;;;;;0.13;0.13;;;;;;;;;;4960350;28;20054;-55
2022/09/28 12:33:10;;;;;;;0.25;0.25;;;;;;;;;;4966913;28;20062;-57
2022/09/28 12:35:44;;;;;;;0.57;0.10;;;;;;;;;;4960371;28;20257;-61
2022/09/28 12:38:18;;;;;;;0.63;0.20;;;;;;;;;;4967222;28;20105;-61
2022/09/28 12:40:51;;;;;;;0.15;0.15;;;;;;;;;;4953433;28;20065;-57
2022/09/28 12:43:35;;;;;;;0.52;0.30;;;;;;;;;;4947969;29;20118;-54
2022/09/28 12:46:09;;;;;;;0.20;0.20;;;;;;;;;;4935826;28;20047;-63
2022/09/28 12:48:44;;;;;;;0.20;0.20;;;;;;;;;;4966631;28;20058;-59
2022/09/28 12:51:16;;;;;;;0.10;0.10;;;;;;;;;;4960016;28;20055;-59
2022/09/28 12:53:51;;;;;;;0.25;0.25;;;;;;;;;;4966712;28;20055;-67
2022/09/28 12:56:26;;;;;;;0.10;0.10;;;;;;;;;;4952820;28;20129;-64
2022/09/28 12:58:59;;;;;;;0.93;0.40;;;;;;;;;;4955535;28;20061;-60
2022/09/28 13:01:35;;;;;;;1.08;0.45;;;;;;;;;;4963301;28;20074;-52
2022/09/28 13:04:09;;;;;;;1.05;0.30;;;;;;;;;;4969926;28;20058;-60
2022/09/28 13:06:38;;;;;;;4.03;0.43;;;;;;;;;;4964134;28;20150;-59
2022/09/28 13:09:04;;;;;;;;;;;;;;;;;;4970212;28;20085;-58
2022/09/28 13:11:40;;;;;;;0.40;0.30;;;;;;;;;;4964348;28;19932;-60
2022/09/28 13:14:14;;;;;;;0.50;0.32;;;;;;;;;;4969261;28;20058;-66
2022/09/28 13:16:46;;;;;;;6.93;0.55;;;;;;;;;;4963885;28;20054;-63
2022/09/28 13:19:15;;;;;;;1.27;0.40;;;;;;;;;;4969482;28;20113;-58
2022/09/28 13:21:46;;;;;;;0.77;0.30;;;;;;;;;;4963793;28;20059;-61
2022/09/28 13:24:26;;;;;;;1.02;0.40;;;;;;;;;;4970016;28;20055;-62
2022/09/28 13:26:56;;;;;;;1.63;0.43;;;;;;;;;;4964483;28;20073;-61
2022/09/28 13:29:24;;;;;;;0.63;0.43;;;;;;;;;;4962278;28;20050;-52
2022/09/28 13:31:53;;;;;;;0.90;0.70;;;;;;;;;;4965256;28;20141;-53
2022/09/28 13:34:22;;;;;;;1.23;0.47;;;;;;;;;;4969350;28;20055;-54
2022/09/28 13:36:49;;;;;;;;;;;;;;;;;;4969508;28;20058;-57
2022/09/28 13:39:36;;;;;;;0.45;0.30;;;;;;;;;;4962778;28;19926;-62
2022/09/28 13:42:06;;;;;;;0.80;0.40;;;;;;;;;;4969436;28;20275;-55
2022/09/28 13:44:46;;;;;;;3.22;0.47;;;;;;;;;;4964555;28;20082;-62
2022/09/28 13:47:28;;;;;;;1.00;0.50;;;;;;;;;;4968292;28;20061;-68
2022/09/28 13:50:03;;;;;;;0.95;0.40;;;;;;;;;;4966846;28;20066;-60
2022/09/28 13:52:34;;;;;;;0.40;0.40;;;;;;;;;;4969353;28;20085;-55
2022/09/28 13:55:12;;;;;;;0.75;0.38;;;;;;;;;;4966841;28;20061;-55
2022/09/28 13:57:46;;;;;;;1.25;0.40;;;;;;;;;;4969174;28;20058;-57
2022/09/28 14:00:20;;;;;;;1.20;0.40;;;;;;;;;;4967221;28;20058;-63
2022/09/28 14:02:48;;;;;;;0.20;0.20;;;;;;;;;;4968770;28;20050;-55
2022/09/28 14:05:35;;;;;;;0.50;0.40;;;;;;;;;;4962424;28;20154;-57
2022/09/28 14:08:19;;;;;;;0.45;0.30;;;;;;;;;;4968011;28;20069;-56
2022/09/28 14:10:48;;;;;;;1.83;0.60;;;;;;;;;;4968537;28;20046;-69
2022/09/28 14:16:25;;;;;;;1.30;0.80;;;;;;;;;;5115873;27;20422;-52
2022/09/28 14:18:54;;;;;;;1.40;0.60;;;;;;;;;;5058958;27;20045;-59
2022/09/28 14:21:54;;;;;;;1.70;0.90;;;;;;;;;;5084652;27;20105;-60
2022/09/28 14:24:26;;;;;;;0.65;0.55;;;;;;;;;;4995639;28;20061;-55
2022/09/28 14:27:13;;;;;;;0.98;0.50;;;;;;;;;;4985108;28;20061;-53
2022/09/28 14:29:40;;;;;;;0.75;0.57;;;;;;;;;;5031073;28;20134;-51
2022/09/28 14:32:22;;;;;;;1.60;0.63;;;;;;;;;;5083036;28;20052;-58
2022/09/28 14:34:55;;;;;;;1.15;0.55;;;;;;;;;;5076173;28;20044;-55
2022/09/28 14:43:22;;;;;;;2.83;0.50;;;;;;;;;;5080318;28;20051;-54
2022/09/28 14:45:49;;;;;;;;;;;;;;;;;;5056717;28;20052;-60
2022/09/28 14:48:19;;;;;;;1.42;0.40;;;;;;;;;;5062823;28;19974;-53
2022/09/28 14:50:49;;;;;;;1.35;0.52;;;;;;;;;;5049214;28;20054;-55
2022/09/28 14:53:20;;;;;;;0.95;0.52;;;;;;;;;;5058399;28;20052;-50
2022/09/28 14:55:50;;;;;;;0.82;0.32;;;;;;;;;;5067495;28;20273;-53
2022/09/28 14:58:19;;;;;;;0.57;0.50;;;;;;;;;;5078891;28;20053;-55
2022/09/28 15:00:45;;;;;;;0.30;0.28;;;;;;;;;;5075007;28;20052;-52
2022/09/28 15:03:14;;;;;;;0.65;0.40;;;;;;;;;;5108941;28;20056;-62
2022/09/28 15:05:42;;;;;;;1.13;0.38;;;;;;;;;;5078348;28;20058;-59
2022/09/28 15:08:11;;;;;;;0.80;0.40;;;;;;;;;;5071288;28;20052;-55
2022/09/28 15:10:40;;;;;;;0.82;0.40;;;;;;;;;;5080350;28;20060;-56
2022/09/28 15:13:17;;;;;;;1.88;0.40;;;;;;;;;;5071925;28;20124;-57
2022/09/28 15:15:49;;;;;;;7.13;0.32;;;;;;;;;;5078981;28;20135;-54